createdAt,value
2019-01-26T00:00:59.561Z,11.53
2019-01-26T00:03:31.349Z,12.43
2019-01-26T00:06:03.068Z,15.78
2019-01-26T00:08:34.757Z,11.63
2019-01-26T00:13:37.267Z,11.93
2019-01-26T00:16:08.896Z,12.70
2019-01-26T00:18:40.424Z,11.83
2019-01-26T00:21:12.031Z,12.90
2019-01-26T00:23:43.782Z,10.38
2019-01-26T00:28:46.310Z,12.82
2019-01-26T00:31:17.867Z,13.83
2019-01-26T00:33:49.739Z,13.05
2019-01-26T00:38:52.309Z,12.00
2019-01-26T00:41:23.837Z,13.18
2019-01-26T00:43:55.646Z,12.85
2019-01-26T00:46:28.446Z,10.58
2019-01-26T00:49:00.790Z,10.45
2019-01-26T00:54:03.970Z,10.28
2019-01-26T00:56:37.106Z,10.95
2019-01-26T00:59:10.404Z,9.75
2019-01-26T01:01:43.350Z,11.48
2019-01-26T01:04:15.354Z,12.35
2019-01-26T01:06:47.289Z,10.70
2019-01-26T01:09:20.352Z,11.03
2019-01-26T01:11:53.133Z,10.23
2019-01-26T01:14:26.211Z,9.10
2019-01-26T01:16:59.132Z,10.60
2019-01-26T01:19:30.790Z,9.63
2019-01-26T01:22:02.621Z,10.30
2019-01-26T01:24:34.334Z,9.38
2019-01-26T01:27:06.312Z,9.08
2019-01-26T01:29:39.110Z,11.40
2019-01-26T01:32:10.814Z,9.63
2019-01-26T01:34:42.409Z,10.10
2019-01-26T01:37:14.310Z,10.60
2019-01-26T01:39:45.873Z,9.83
2019-01-26T01:42:17.811Z,10.28
2019-01-26T01:44:49.637Z,10.80
2019-01-26T01:47:21.454Z,8.98
2019-01-26T01:49:53.313Z,10.65
2019-01-26T01:52:24.894Z,9.83
2019-01-26T01:54:57.297Z,9.25
2019-01-26T01:57:29.056Z,8.98
2019-01-26T02:00:00.786Z,9.70
2019-01-26T02:02:32.397Z,9.60
2019-01-26T02:05:04.258Z,9.63
2019-01-26T02:07:35.885Z,10.45
2019-01-26T02:10:10.305Z,8.93
2019-01-26T02:12:42.007Z,9.28
2019-01-26T02:15:14.065Z,10.15
2019-01-26T02:17:45.809Z,8.63
2019-01-26T02:20:21.756Z,11.60
2019-01-26T02:25:24.334Z,9.25
2019-01-26T02:27:56.069Z,10.72
2019-01-26T02:30:27.782Z,8.53
2019-01-26T02:35:30.317Z,9.05
2019-01-26T02:38:01.899Z,8.95
2019-01-26T02:40:34.308Z,9.80
2019-01-26T02:43:05.989Z,9.38
2019-01-26T02:45:37.745Z,9.33
2019-01-26T02:48:09.446Z,8.50
2019-01-26T02:50:41.356Z,8.68
2019-01-26T02:53:13.048Z,8.73
2019-01-26T02:55:44.779Z,10.05
2019-01-26T03:00:47.318Z,8.53
2019-01-26T03:03:18.958Z,8.98
2019-01-26T03:05:50.871Z,8.70
2019-01-26T03:08:22.832Z,8.78
2019-01-26T03:10:54.581Z,9.33
2019-01-26T03:13:26.275Z,8.85
2019-01-26T03:15:58.073Z,8.45
2019-01-26T03:18:30.306Z,9.28
2019-01-26T03:21:01.859Z,8.60
2019-01-26T03:23:34.068Z,8.10
2019-01-26T03:26:05.781Z,8.48
2019-01-26T03:31:08.325Z,8.68
2019-01-26T03:33:40.395Z,7.83
2019-01-26T03:36:12.053Z,7.55
2019-01-26T03:38:43.795Z,9.00
2019-01-26T03:43:46.327Z,8.00
2019-01-26T03:46:18.003Z,8.45
2019-01-26T03:48:49.806Z,8.23
2019-01-26T03:51:21.497Z,7.20
2019-01-26T03:53:53.314Z,7.47
2019-01-26T03:56:24.829Z,7.47
2019-01-26T03:58:56.612Z,7.87
2019-01-26T04:01:28.313Z,7.78
2019-01-26T04:04:00.990Z,7.65
2019-01-26T04:06:32.729Z,8.20
2019-01-26T04:11:37.047Z,8.45
2019-01-26T04:14:08.822Z,7.55
2019-01-26T04:16:40.791Z,7.35
2019-01-26T04:21:43.618Z,7.10
2019-01-26T04:24:15.735Z,7.53
2019-01-26T04:29:18.792Z,7.40
2019-01-26T04:31:50.392Z,7.55
2019-01-26T04:34:22.378Z,7.05
2019-01-26T04:36:54.061Z,7.22
2019-01-26T04:39:25.813Z,7.47
2019-01-26T04:41:57.542Z,7.55
2019-01-26T04:44:29.697Z,7.17
2019-01-26T04:47:01.801Z,7.75
2019-01-26T04:49:33.541Z,6.90
2019-01-26T04:52:05.414Z,6.20
2019-01-26T04:54:37.076Z,6.95
2019-01-26T04:57:08.796Z,6.70
2019-01-26T05:02:11.317Z,6.45
2019-01-26T05:04:43.002Z,6.83
2019-01-26T05:07:14.755Z,6.55
2019-01-26T05:12:17.417Z,7.10
2019-01-26T05:14:49.076Z,6.47
2019-01-26T05:17:20.800Z,6.70
2019-01-26T05:22:23.336Z,6.50
2019-01-26T05:24:55.771Z,6.50
2019-01-26T05:29:58.807Z,6.17
2019-01-26T05:32:31.071Z,6.67
2019-01-26T05:35:02.812Z,6.80
2019-01-26T05:37:34.515Z,6.50
2019-01-26T05:40:07.792Z,6.22
2019-01-26T05:45:14.903Z,6.60
2019-01-26T05:47:49.020Z,6.75
2019-01-26T05:50:24.313Z,7.10
2019-01-26T05:52:56.328Z,5.90
2019-01-26T05:55:27.885Z,5.62
2019-01-26T05:57:59.415Z,5.70
2019-01-26T06:00:33.582Z,6.20
2019-01-26T06:03:05.325Z,6.47
2019-01-26T06:05:36.892Z,5.40
2019-01-26T06:08:08.856Z,5.87
2019-01-26T06:10:40.783Z,5.70
2019-01-26T06:15:43.354Z,4.95
2019-01-26T06:18:16.889Z,5.30
2019-01-26T06:20:48.913Z,6.08
2019-01-26T06:23:20.790Z,5.55
2019-01-26T06:25:52.637Z,5.20
2019-01-26T06:28:24.643Z,5.00
2019-01-26T06:30:55.700Z,5.37
2019-01-26T06:35:58.773Z,5.08
2019-01-26T06:41:01.793Z,5.12
2019-01-26T06:43:33.460Z,5.10
2019-01-26T06:46:05.319Z,5.35
2019-01-26T06:48:37.067Z,5.10
2019-01-26T06:51:08.846Z,5.40
2019-01-26T06:53:40.957Z,4.85
2019-01-26T06:56:12.828Z,5.15
2019-01-26T06:58:44.808Z,5.17
2019-01-26T07:01:16.466Z,5.03
2019-01-26T07:03:48.317Z,4.67
2019-01-26T07:06:26.358Z,5.20
2019-01-26T07:08:58.309Z,5.20
2019-01-26T07:11:30.288Z,5.37
2019-01-26T07:14:01.914Z,4.70
2019-01-26T07:16:33.437Z,4.92
2019-01-26T07:19:05.074Z,4.78
2019-01-26T07:21:36.810Z,4.75
2019-01-26T07:24:08.409Z,4.85
2019-01-26T07:26:40.072Z,4.75
2019-01-26T07:29:11.793Z,4.80
2019-01-26T07:31:43.408Z,4.50
2019-01-26T07:34:15.057Z,5.08
2019-01-26T07:36:46.791Z,4.58
2019-01-26T07:41:49.876Z,4.15
2019-01-26T07:44:21.760Z,4.80
2019-01-26T07:49:24.314Z,4.78
2019-01-26T07:51:56.033Z,4.75
2019-01-26T07:54:27.870Z,4.72
2019-01-26T07:56:59.427Z,4.70
2019-01-26T07:59:31.069Z,5.05
2019-01-26T08:02:02.986Z,4.70
2019-01-26T08:04:34.811Z,4.35
2019-01-26T08:09:37.357Z,4.67
2019-01-26T08:12:09.029Z,4.53
2019-01-26T08:14:40.779Z,4.30
2019-01-26T08:19:43.291Z,4.40
2019-01-26T08:22:14.904Z,4.53
2019-01-26T08:24:46.778Z,5.95
2019-01-26T08:29:49.315Z,4.35
2019-01-26T08:32:21.356Z,4.53
2019-01-26T08:34:53.271Z,4.05
2019-01-26T08:37:25.334Z,4.42
2019-01-26T08:39:57.373Z,4.55
2019-01-26T08:42:29.408Z,4.40
2019-01-26T08:45:01.313Z,5.10
2019-01-26T08:47:32.862Z,4.70
2019-01-26T08:50:05.273Z,3.92
2019-01-26T08:52:37.014Z,4.50
2019-01-26T08:55:10.393Z,3.98
2019-01-26T08:57:42.052Z,4.25
2019-01-26T09:00:21.806Z,3.70
2019-01-26T09:03:13.308Z,3.47
2019-01-26T09:06:00.341Z,3.83
2019-01-26T09:08:32.270Z,3.77
2019-01-26T09:11:03.893Z,4.80
2019-01-26T09:13:36.316Z,3.30
2019-01-26T09:16:09.058Z,3.70
2019-01-26T09:18:40.788Z,4.60
2019-01-26T09:21:12.587Z,3.80
2019-01-26T09:23:44.313Z,4.12
2019-01-26T09:26:15.882Z,3.83
2019-01-26T09:28:47.813Z,4.25
2019-01-26T09:31:19.662Z,3.50
2019-01-26T09:33:51.706Z,3.27
2019-01-26T09:38:54.317Z,3.85
2019-01-26T09:41:25.878Z,4.10
2019-01-26T09:43:57.470Z,4.33
2019-01-26T09:46:29.305Z,3.90
2019-01-26T09:49:00.896Z,3.83
2019-01-26T09:51:32.616Z,4.25
2019-01-26T09:54:04.395Z,3.70
2019-01-26T09:56:36.308Z,5.55
2019-01-26T09:59:07.837Z,3.55
2019-01-26T10:01:39.612Z,3.70
2019-01-26T10:04:11.467Z,4.30
2019-01-26T10:06:43.310Z,3.50
2019-01-26T10:09:14.857Z,3.92
2019-01-26T10:11:46.398Z,4.08
2019-01-26T10:14:18.256Z,4.05
2019-01-26T10:16:49.813Z,4.80
2019-01-26T10:19:22.301Z,4.08
2019-01-26T10:21:53.909Z,4.87
2019-01-26T10:24:25.749Z,3.55
2019-01-26T10:29:28.402Z,4.15
2019-01-26T10:32:00.059Z,4.50
2019-01-26T10:34:31.798Z,4.47
2019-01-26T10:37:08.571Z,4.20
2019-01-26T10:39:40.337Z,3.47
2019-01-26T10:42:27.053Z,3.47
2019-01-26T10:44:58.764Z,4.00
2019-01-26T10:50:01.551Z,3.65
2019-01-26T10:52:33.292Z,4.20
2019-01-26T10:55:05.309Z,3.70
2019-01-26T10:57:37.297Z,3.95
2019-01-26T11:00:14.617Z,3.70
2019-01-26T11:03:14.955Z,3.55
2019-01-26T11:05:50.835Z,3.75
2019-01-26T11:08:26.550Z,4.08
2019-01-26T11:10:57.595Z,3.92
2019-01-26T11:13:29.259Z,3.08
2019-01-26T11:16:01.298Z,3.58
2019-01-26T11:18:33.361Z,3.45
2019-01-26T11:21:05.306Z,3.83
2019-01-26T11:23:37.350Z,4.37
2019-01-26T11:26:09.306Z,4.92
2019-01-26T11:28:40.862Z,4.33
2019-01-26T11:31:14.318Z,3.60
2019-01-26T11:33:46.297Z,3.47
2019-01-26T11:36:17.823Z,4.53
2019-01-26T11:38:49.614Z,4.12
2019-01-26T11:41:21.397Z,3.75
2019-01-26T11:43:53.057Z,3.40
2019-01-26T11:46:46.314Z,3.42
2019-01-26T11:49:18.305Z,3.55
2019-01-26T11:52:09.729Z,3.50
2019-01-26T11:55:19.549Z,3.20
2019-01-26T11:57:51.311Z,3.33
2019-01-26T12:00:47.380Z,3.65
2019-01-26T12:03:42.356Z,3.12
2019-01-26T12:06:23.639Z,3.12
2019-01-26T12:11:27.372Z,3.40
2019-01-26T12:13:59.566Z,3.30
2019-01-26T12:16:31.820Z,4.15
2019-01-26T12:19:03.415Z,3.72
2019-01-26T12:21:35.146Z,3.25
2019-01-26T12:24:06.748Z,5.05
2019-01-26T12:29:09.302Z,3.25
2019-01-26T12:31:40.959Z,3.47
2019-01-26T12:34:17.060Z,4.75
2019-01-26T12:36:48.761Z,2.98
2019-01-26T12:41:51.417Z,3.25
2019-01-26T12:44:23.306Z,3.58
2019-01-26T12:46:54.791Z,3.62
2019-01-26T12:49:29.692Z,4.05
2019-01-26T12:52:00.315Z,2.90
2019-01-26T12:54:32.268Z,3.65
2019-01-26T12:57:03.852Z,3.40
2019-01-26T12:59:35.655Z,3.20
2019-01-26T13:02:08.006Z,3.15
2019-01-26T13:04:39.793Z,4.03
2019-01-26T13:07:11.624Z,2.98
2019-01-26T13:09:42.706Z,2.72
2019-01-26T13:17:16.781Z,3.25
2019-01-26T13:22:19.446Z,3.10
2019-01-26T13:24:51.802Z,3.02
2019-01-26T13:27:23.789Z,3.02
2019-01-26T13:29:55.605Z,3.57
2019-01-26T13:32:27.814Z,2.87
2019-01-26T13:34:59.877Z,3.10
2019-01-26T13:37:31.848Z,4.05
2019-01-26T13:40:03.835Z,3.80
2019-01-26T13:42:35.640Z,3.20
2019-01-26T13:45:09.844Z,3.00
2019-01-26T13:47:41.739Z,2.90
2019-01-26T13:52:44.412Z,2.90
2019-01-26T13:55:19.342Z,3.25
2019-01-26T13:57:51.390Z,2.62
2019-01-26T14:00:28.386Z,2.85
2019-01-26T14:03:00.793Z,3.02
2019-01-26T14:08:03.374Z,2.90
2019-01-26T14:10:35.328Z,2.70
2019-01-26T14:13:08.314Z,2.60
2019-01-26T14:15:40.304Z,2.95
2019-01-26T14:18:12.795Z,2.47
2019-01-26T14:20:44.653Z,3.00
2019-01-26T14:23:16.375Z,2.80
2019-01-26T14:25:48.855Z,2.55
2019-01-26T14:28:20.804Z,2.50
2019-01-26T14:31:02.031Z,3.15
2019-01-26T14:33:34.307Z,3.30
2019-01-26T14:36:06.074Z,2.83
2019-01-26T14:38:37.794Z,2.60
2019-01-26T14:41:10.317Z,3.00
2019-01-26T14:43:42.321Z,3.27
2019-01-26T14:46:14.382Z,2.92
2019-01-26T14:48:46.451Z,3.02
2019-01-26T14:51:18.344Z,3.45
2019-01-26T14:53:50.327Z,2.58
2019-01-26T14:56:22.310Z,3.00
2019-01-26T14:58:54.317Z,3.20
2019-01-26T15:01:26.801Z,2.42
2019-01-26T15:03:58.803Z,2.92
2019-01-26T15:06:30.817Z,2.75
2019-01-26T15:09:02.834Z,3.50
2019-01-26T15:11:34.844Z,2.80
2019-01-26T15:14:06.777Z,2.60
2019-01-26T15:21:40.783Z,2.47
2019-01-26T15:29:16.577Z,2.87
2019-01-26T15:31:48.772Z,2.92
2019-01-26T15:36:51.396Z,2.15
2019-01-26T15:39:23.314Z,2.77
2019-01-26T15:41:55.318Z,2.47
2019-01-26T15:44:27.033Z,4.03
2019-01-26T15:46:58.809Z,2.60
2019-01-26T15:49:30.876Z,2.50
2019-01-26T15:52:02.810Z,2.65
2019-01-26T15:54:34.867Z,2.50
2019-01-26T15:57:06.798Z,3.58
2019-01-26T16:02:09.804Z,2.55
2019-01-26T16:04:41.643Z,2.87
2019-01-26T16:07:13.806Z,2.75
2019-01-26T16:09:45.618Z,3.40
2019-01-26T16:12:17.406Z,3.10
2019-01-26T16:14:49.306Z,2.85
2019-01-26T16:17:21.045Z,2.40
2019-01-26T16:19:52.808Z,2.60
2019-01-26T16:22:24.582Z,3.55
2019-01-26T16:24:56.471Z,3.42
2019-01-26T16:27:28.298Z,2.45
2019-01-26T16:29:59.859Z,4.03
2019-01-26T16:32:31.750Z,3.45
2019-01-26T16:37:34.314Z,3.17
2019-01-26T16:40:07.835Z,2.95
2019-01-26T16:42:39.447Z,3.02
2019-01-26T16:45:17.786Z,2.27
2019-01-26T16:50:27.705Z,3.20
2019-01-26T16:52:58.306Z,2.75
2019-01-26T16:55:30.068Z,2.30
2019-01-26T16:58:01.790Z,3.12
2019-01-26T17:00:50.320Z,2.80
2019-01-26T17:03:22.717Z,2.70
2019-01-26T17:08:26.105Z,2.80
2019-01-26T17:10:57.791Z,2.37
2019-01-26T17:13:29.669Z,3.20
2019-01-26T17:16:01.402Z,2.40
2019-01-26T17:18:33.311Z,2.30
2019-01-26T17:21:05.055Z,2.83
2019-01-26T17:23:56.587Z,2.20
2019-01-26T17:26:28.370Z,2.47
2019-01-26T17:29:00.060Z,2.55
2019-01-26T17:31:31.773Z,2.00
2019-01-26T17:36:34.418Z,2.33
2019-01-26T17:39:09.783Z,2.62
2019-01-26T17:41:41.432Z,3.30
2019-01-26T17:44:13.307Z,3.62
2019-01-26T17:46:45.060Z,2.25
2019-01-26T17:49:16.807Z,2.60
2019-01-26T17:51:48.529Z,2.22
2019-01-26T17:54:20.377Z,2.70
2019-01-26T17:56:52.305Z,2.12
2019-01-26T17:59:24.322Z,2.60
2019-01-26T18:01:56.309Z,3.42
2019-01-26T18:04:27.869Z,2.33
2019-01-26T18:06:59.644Z,2.65
2019-01-26T18:09:31.657Z,4.00
2019-01-26T18:12:03.378Z,2.77
2019-01-26T18:14:35.033Z,3.30
2019-01-26T18:17:08.299Z,2.77
2019-01-26T18:19:39.840Z,3.10
2019-01-26T18:22:11.609Z,3.87
2019-01-26T18:24:43.370Z,2.62
2019-01-26T18:27:15.013Z,2.42
2019-01-26T18:29:46.774Z,3.25
2019-01-26T18:32:18.787Z,3.40
2019-01-26T18:34:50.348Z,3.30
2019-01-26T18:37:22.031Z,2.58
2019-01-26T18:39:53.789Z,2.20
2019-01-26T18:42:25.477Z,3.62
2019-01-26T18:44:57.062Z,3.17
2019-01-26T18:47:29.301Z,2.50
2019-01-26T18:50:00.898Z,3.17
2019-01-26T18:52:33.003Z,3.20
2019-01-26T18:55:05.064Z,2.30
2019-01-26T18:57:36.760Z,2.37
2019-01-26T19:02:46.267Z,2.08
2019-01-26T19:05:20.777Z,2.60
2019-01-26T19:07:52.356Z,2.70
2019-01-26T19:10:24.062Z,2.65
2019-01-26T19:12:55.805Z,3.22
2019-01-26T19:15:27.581Z,1.92
2019-01-26T19:17:59.336Z,2.20
2019-01-26T19:20:31.301Z,2.30
2019-01-26T19:23:03.064Z,2.20
2019-01-26T19:25:35.273Z,2.12
2019-01-26T19:28:06.993Z,3.00
2019-01-26T19:30:38.730Z,1.90
2019-01-26T19:33:10.373Z,2.30
2019-01-26T19:35:42.302Z,2.45
2019-01-26T19:38:13.891Z,2.83
2019-01-26T19:40:45.808Z,3.15
2019-01-26T19:43:17.532Z,2.27
2019-01-26T19:45:49.306Z,2.20
2019-01-26T19:48:21.301Z,2.45
2019-01-26T19:50:53.024Z,2.40
2019-01-26T19:53:24.741Z,2.70
2019-01-26T19:55:56.436Z,3.90
2019-01-26T19:58:30.148Z,1.95
2019-01-26T20:01:02.255Z,2.22
2019-01-26T20:03:33.855Z,1.95
2019-01-26T20:06:05.607Z,1.80
2019-01-26T20:08:37.371Z,1.70
2019-01-26T20:11:09.309Z,1.87
2019-01-26T20:13:40.861Z,1.92
2019-01-26T20:16:12.653Z,3.62
2019-01-26T20:18:44.414Z,2.33
2019-01-26T20:21:17.698Z,2.58
2019-01-26T20:23:49.411Z,2.80
2019-01-26T20:26:21.306Z,3.33
2019-01-26T20:28:53.413Z,2.83
2019-01-26T20:31:25.062Z,3.05
2019-01-26T20:33:56.769Z,3.10
2019-01-26T20:38:59.456Z,3.70
2019-01-26T20:41:31.264Z,3.05
2019-01-26T20:45:27.058Z,2.10
2019-01-26T20:47:58.767Z,2.12
2019-01-26T20:53:01.262Z,2.02
2019-01-26T20:55:32.841Z,2.12
2019-01-26T20:58:04.581Z,2.60
2019-01-26T21:00:36.255Z,2.22
2019-01-26T21:03:07.815Z,2.40
2019-01-26T21:05:39.600Z,2.77
2019-01-26T21:08:11.330Z,2.45
2019-01-26T21:10:43.016Z,2.10
2019-01-26T21:13:16.488Z,2.72
2019-01-26T21:15:48.300Z,2.58
2019-01-26T21:18:19.845Z,2.05
2019-01-26T21:20:51.580Z,2.85
2019-01-26T21:23:23.341Z,3.65
2019-01-26T21:25:55.026Z,1.92
2019-01-26T21:28:26.771Z,2.67
2019-01-26T21:33:29.300Z,1.85
2019-01-26T21:36:00.829Z,1.77
2019-01-26T21:38:32.606Z,1.60
2019-01-26T21:41:04.366Z,2.22
2019-01-26T21:43:36.554Z,2.50
2019-01-26T21:46:07.919Z,1.87
2019-01-26T21:48:39.293Z,1.82
2019-01-26T21:51:10.869Z,1.80
2019-01-26T21:53:42.721Z,1.90
2019-01-26T21:58:45.294Z,2.25
2019-01-26T22:01:16.893Z,2.37
2019-01-26T22:03:48.734Z,2.20
2019-01-26T22:08:51.300Z,2.27
2019-01-26T22:11:22.837Z,2.10
2019-01-26T22:13:54.580Z,2.17
2019-01-26T22:16:26.274Z,3.10
2019-01-26T22:18:58.303Z,1.80
2019-01-26T22:21:30.277Z,1.90
2019-01-26T22:24:01.853Z,1.80
2019-01-26T22:26:33.585Z,2.70
2019-01-26T22:29:05.300Z,1.77
2019-01-26T22:31:37.028Z,2.00
2019-01-26T22:34:08.765Z,2.33
2019-01-26T22:39:11.773Z,2.02
2019-01-26T22:44:14.301Z,2.22
2019-01-26T22:46:45.877Z,1.80
2019-01-26T22:49:17.585Z,2.75
2019-01-26T22:51:53.238Z,2.05
2019-01-26T22:54:21.688Z,1.90
2019-01-26T22:59:24.297Z,1.80
2019-01-26T23:01:55.913Z,2.12
2019-01-26T23:05:22.698Z,2.12
2019-01-26T23:11:25.266Z,1.92
2019-01-26T23:14:43.707Z,1.98
2019-01-26T23:21:02.740Z,2.22
2019-01-26T23:28:05.762Z,2.65
2019-01-26T23:33:53.549Z,2.20
2019-01-26T23:36:25.302Z,2.10
2019-01-26T23:39:02.229Z,2.30
2019-01-26T23:41:30.313Z,1.85
2019-01-26T23:44:01.866Z,1.95
2019-01-26T23:46:33.712Z,2.05
2019-01-26T23:49:05.378Z,1.80
2019-01-26T23:51:37.066Z,1.90
2019-01-26T23:54:08.779Z,1.75
2019-01-26T23:56:40.464Z,1.80
2019-01-26T23:59:12.320Z,1.75
